createdAt,value
2019-03-08T00:15:49.719Z,4.21
2019-03-08T00:15:49.766Z,4.83
2019-03-08T00:15:49.774Z,4.83
2019-03-08T00:15:49.790Z,4.83
2019-03-08T00:15:49.815Z,4.83
2019-03-08T00:15:49.855Z,4.83
2019-03-08T00:15:49.868Z,4.83
2019-03-08T00:21:44.683Z,4.74
2019-03-08T00:27:39.696Z,4.14
2019-03-08T00:33:34.703Z,4.07
2019-03-08T00:39:29.771Z,3.19
2019-03-08T00:45:24.690Z,3.99
2019-03-08T00:51:19.686Z,3.77
2019-03-08T00:57:14.703Z,3.08
2019-03-08T01:03:09.811Z,2.61
2019-03-08T01:09:04.720Z,3.33
2019-03-08T01:14:59.761Z,2.85
2019-03-08T01:20:54.708Z,2.6
2019-03-08T01:26:49.719Z,3.12
2019-03-08T01:32:44.741Z,2.86
2019-03-08T01:38:39.784Z,2.98
2019-03-08T01:44:34.745Z,2.36
2019-03-08T01:50:29.819Z,2.5
2019-03-08T01:56:24.745Z,2.46
2019-03-08T07:04:05.260Z,3.06
2019-03-08T07:09:59.981Z,4.12
2019-03-08T07:15:54.943Z,3.32
2019-03-08T07:21:49.965Z,2.59
2019-03-08T07:27:44.959Z,3.16
2019-03-08T07:33:39.949Z,3.29
2019-03-08T07:39:34.957Z,3.31
2019-03-08T07:45:29.974Z,2.75
2019-03-08T07:51:25.024Z,2.11
2019-03-08T07:57:19.996Z,2.39
2019-03-08T08:03:14.997Z,1.6
2019-03-08T08:09:10.037Z,1.81
2019-03-08T08:15:05.276Z,1.71
2019-03-08T08:21:01.226Z,2.1
2019-03-08T08:26:54.976Z,1.5
2019-03-08T08:32:50.032Z,1.86
2019-03-08T08:38:45.017Z,1.87
2019-03-08T08:44:39.983Z,1.75
2019-03-08T08:50:35.734Z,1.98
2019-03-08T08:56:29.998Z,2.7
2019-03-08T09:02:25.013Z,2.4
2019-03-08T09:14:15.026Z,2.69
2019-03-08T09:14:15.087Z,1.81
2019-03-08T09:20:10.011Z,2.17
2019-03-08T09:26:05.324Z,2.71
2019-03-08T09:32:00.046Z,1.49
2019-03-08T09:37:55.025Z,1.92
2019-03-08T10:01:35.064Z,2.23
2019-03-08T10:01:35.117Z,2.38
2019-03-08T10:01:35.121Z,2.38
2019-03-08T10:01:35.201Z,2.38
2019-03-08T10:07:30.052Z,1.48
2019-03-08T10:13:25.072Z,2.06
2019-03-08T10:19:20.082Z,2.03
2019-03-08T10:25:15.110Z,2.04
2019-03-08T10:31:10.092Z,1.46
2019-03-08T10:37:05.063Z,1.42
2019-03-08T10:43:00.109Z,1.45
2019-03-08T10:48:55.106Z,1.25
2019-03-08T10:54:50.106Z,1.07
2019-03-08T11:00:45.077Z,1.1
2019-03-08T11:06:40.102Z,1.34
2019-03-08T11:12:35.085Z,1.39
2019-03-08T11:18:30.104Z,1.14
2019-03-08T11:24:25.140Z,1.03
2019-03-08T11:30:21.741Z,1.02
2019-03-08T11:36:15.115Z,1.15
2019-03-08T11:42:10.139Z,1.16
2019-03-08T12:05:50.140Z,1.62
2019-03-08T12:05:50.161Z,1.13
2019-03-08T12:05:50.173Z,1.13
2019-03-08T12:05:50.220Z,1.13
2019-03-08T12:11:45.158Z,1.11
2019-03-08T12:17:40.125Z,0.91
2019-03-08T12:23:35.155Z,0.89
2019-03-08T12:29:30.137Z,1.1
2019-03-08T12:35:25.144Z,1.74
2019-03-08T12:41:20.147Z,0.76
2019-03-08T12:47:15.176Z,0.96
2019-03-08T12:53:10.180Z,0.98
2019-03-08T12:59:05.252Z,1.26
2019-03-08T13:05:00.295Z,0.94
2019-03-08T13:10:55.201Z,0.84
2019-03-08T13:16:50.181Z,2.05
2019-03-08T13:22:45.180Z,0.92
2019-03-08T13:28:40.181Z,0.71
2019-03-08T13:34:35.174Z,1.5
2019-03-08T13:40:30.169Z,0.87
2019-03-08T13:46:25.184Z,0.82
2019-03-08T14:04:10.221Z,1.06
2019-03-08T14:04:10.244Z,0.91
2019-03-08T14:04:10.266Z,0.91
2019-03-08T14:10:05.195Z,1.61
2019-03-08T14:16:00.197Z,1.4
2019-03-08T14:21:55.251Z,0.65
2019-03-08T14:27:50.202Z,1.03
2019-03-08T14:33:45.228Z,1.08
2019-03-08T14:39:43.950Z,0.85
2019-03-08T14:45:35.256Z,1.01
2019-03-08T14:51:30.244Z,0.8
2019-03-08T15:21:05.269Z,0.9
2019-03-08T15:21:05.299Z,1.35
2019-03-08T15:21:05.325Z,1.35
2019-03-08T15:21:05.365Z,1.35
2019-03-08T15:21:05.371Z,1.35
2019-03-08T15:27:00.275Z,0.93
2019-03-08T15:32:55.233Z,0.89
2019-03-08T15:38:58.075Z,1.14
2019-03-08T15:44:45.282Z,1.04
2019-03-08T15:50:42.724Z,1.18
2019-03-08T15:56:35.288Z,1.09
2019-03-08T16:02:30.259Z,1.57
2019-03-08T18:42:15.746Z,1.36
2019-03-08T18:48:10.369Z,2.89
2019-03-08T18:54:05.373Z,3.25
2019-03-08T19:00:00.388Z,4.2
2019-03-08T19:05:55.396Z,4.3
2019-03-08T19:11:50.414Z,4.82
2019-03-08T19:17:45.381Z,5.02
2019-03-08T19:23:40.388Z,5.16
2019-03-08T19:29:35.401Z,4.78
2019-03-08T19:35:30.427Z,3.66
2019-03-08T19:41:25.410Z,3.57
2019-03-08T19:47:20.472Z,3.98
2019-03-08T19:53:15.425Z,4.48
2019-03-08T19:59:10.773Z,4.95
2019-03-08T20:05:05.481Z,4.53
2019-03-08T20:11:00.442Z,5.5
2019-03-08T20:16:55.448Z,4.28
2019-03-08T20:22:50.440Z,4.44
2019-03-08T20:28:45.481Z,4.37
2019-03-08T20:34:40.480Z,5.6
2019-03-08T20:40:35.459Z,5.76
2019-03-08T20:46:30.437Z,4.21
2019-03-08T20:52:25.456Z,4.99
2019-03-08T20:58:20.490Z,5.49
2019-03-08T21:04:15.806Z,5.18
2019-03-08T21:10:10.757Z,4.89
2019-03-08T21:16:05.470Z,5.94
